Time;durP1;ratioP1;P1;durP2;ratioP2;P2;SDS_P1;SDS_P2;PMS_P1;PMS_P2;Temp;Humidity;BMP_temperature;BMP_pressure;BME280_temperature;BME280_humidity;BME280_pressure;Samples;Min_cycle;Max_cycle;Signal;HPM_P1;HPM_P2
2023/05/17 00:01:18;;;;;;;20.10;4.18;;;;;;;7.86;100.00;102528.06;5245436;28;20104;-72
2023/05/17 00:03:48;;;;;;;20.90;4.13;;;;;;;7.81;100.00;102534.69;5246921;28;20133;-71
2023/05/17 00:06:19;;;;;;;20.83;5.15;;;;;;;7.81;100.00;102529.34;5246057;28;20519;-71
2023/05/17 00:08:50;;;;;;;19.38;4.75;;;;;;;7.81;100.00;102527.53;5246498;28;20039;-71
2023/05/17 00:11:20;;;;;;;19.30;4.25;;;;;;;7.82;100.00;102533.72;5246514;28;20024;-71
2023/05/17 00:13:50;;;;;;;17.70;4.10;;;;;;;7.77;100.00;102529.53;5246662;28;20020;-71
2023/05/17 00:16:21;;;;;;;20.17;4.10;;;;;;;7.78;100.00;102531.28;5232995;28;20440;-71
2023/05/17 00:18:51;;;;;;;17.58;4.00;;;;;;;7.87;100.00;102535.09;5246597;28;20024;-71
2023/05/17 00:21:22;;;;;;;24.88;5.43;;;;;;;7.91;100.00;102531.25;5245823;28;20047;-71
2023/05/17 00:23:52;;;;;;;24.13;4.38;;;;;;;7.95;100.00;102535.44;5246719;28;20025;-71
2023/05/17 00:26:23;;;;;;;22.98;4.97;;;;;;;7.99;100.00;102530.75;5246113;28;20036;-71
2023/05/17 00:28:53;;;;;;;22.65;5.28;;;;;;;7.98;100.00;102531.66;5245722;28;20521;-72
2023/05/17 00:31:24;;;;;;;15.65;5.35;;;;;;;7.95;100.00;102535.44;5246379;28;20033;-72
2023/05/17 00:33:54;;;;;;;21.52;5.45;;;;;;;7.93;100.00;102537.38;5246225;28;20091;-71
2023/05/17 00:36:25;;;;;;;14.70;5.03;;;;;;;7.92;100.00;102527.63;5244980;28;20039;-71
2023/05/17 00:38:55;;;;;;;22.08;5.47;;;;;;;7.96;100.00;102525.59;5243490;28;20040;-71
2023/05/17 00:41:26;;;;;;;13.57;4.85;;;;;;;7.98;100.00;102529.88;5232979;28;20025;-71
2023/05/17 00:43:56;;;;;;;24.77;5.82;;;;;;;7.95;100.00;102524.75;5241831;28;20017;-71
2023/05/17 00:46:27;;;;;;;16.02;5.50;;;;;;;7.91;100.00;102525.06;5245267;28;20029;-71
2023/05/17 00:48:58;;;;;;;21.55;5.90;;;;;;;7.87;100.00;102527.09;5245448;28;20035;-71
2023/05/17 00:51:28;;;;;;;23.13;7.35;;;;;;;7.91;100.00;102530.41;5245609;28;20024;-71
2023/05/17 00:53:59;;;;;;;23.45;5.10;;;;;;;7.88;100.00;102522.59;5230801;28;20021;-71
2023/05/17 00:56:30;;;;;;;19.15;5.70;;;;;;;7.86;100.00;102529.88;5238011;28;20462;-71
2023/05/17 00:59:03;;;;;;;19.80;6.10;;;;;;;7.83;100.00;102538.09;5245845;28;20024;-70
2023/05/17 01:01:36;;;;;;;25.27;6.55;;;;;;;7.76;100.00;102533.19;5244395;28;20043;-71
2023/05/17 01:04:08;;;;;;;19.17;6.03;;;;;;;7.68;100.00;102532.00;5224725;28;20021;-71
2023/05/17 01:06:39;;;;;;;17.42;6.18;;;;;;;7.62;100.00;102535.09;5237340;28;20445;-71
2023/05/17 01:09:10;;;;;;;19.85;6.47;;;;;;;7.59;100.00;102530.00;5235222;28;20058;-71
2023/05/17 01:11:54;;;;;;;21.27;7.05;;;;;;;7.52;100.00;102532.22;5240820;28;20017;-71
2023/05/17 01:14:40;;;;;;;23.95;6.63;;;;;;;7.47;100.00;102529.00;5238480;28;20604;-71
2023/05/17 01:17:19;;;;;;;23.23;6.10;;;;;;;7.41;100.00;102537.44;5235271;28;20024;-71
2023/05/17 01:20:28;;;;;;;28.73;6.63;;;;;;;7.30;100.00;102530.16;5225585;28;20028;-71
2023/05/17 01:23:35;;;;;;;19.98;6.13;;;;;;;7.20;100.00;102531.75;5231044;28;20059;-71
2023/05/17 01:26:23;;;;;;;16.63;5.43;;;;;;;7.08;100.00;102527.22;5226730;28;20037;-70
2023/05/17 01:28:56;;;;;;;18.27;5.28;;;;;;;6.97;100.00;102526.09;5219939;28;20028;-71
2023/05/17 01:31:27;;;;;;;22.85;7.25;;;;;;;6.84;100.00;102527.03;5244411;28;20103;-71
2023/05/17 01:33:57;;;;;;;20.75;5.95;;;;;;;6.74;100.00;102526.78;5244373;28;20047;-71
2023/05/17 01:36:28;;;;;;;19.35;6.43;;;;;;;6.63;100.00;102521.31;5244517;28;20485;-71
2023/05/17 01:39:00;;;;;;;18.38;5.97;;;;;;;6.56;100.00;102522.66;5245224;28;20035;-71
2023/05/17 01:41:49;;;;;;;30.85;8.65;;;;;;;6.47;100.00;102519.59;5222754;28;20020;-70
2023/05/17 01:44:35;;;;;;;22.00;8.73;;;;;;;6.41;100.00;102516.50;5245874;28;20117;-70
2023/05/17 01:47:40;;;;;;;30.45;8.20;;;;;;;6.30;100.00;102509.19;5244493;28;20127;-70
2023/05/17 01:50:14;;;;;;;21.40;7.50;;;;;;;6.21;100.00;102510.63;5242903;28;20025;-70
2023/05/17 01:52:51;;;;;;;22.02;6.43;;;;;;;6.17;100.00;102518.91;5242638;28;20032;-70
2023/05/17 01:55:38;;;;;;;18.35;5.60;;;;;;;6.15;100.00;102521.69;5242638;28;20024;-71
2023/05/17 01:58:11;;;;;;;22.90;6.20;;;;;;;6.14;100.00;102527.97;5242492;28;20029;-70
2023/05/17 02:00:45;;;;;;;18.25;5.30;;;;;;;6.12;100.00;102524.50;5232508;28;20021;-70
2023/05/17 02:03:17;;;;;;;23.17;5.07;;;;;;;6.08;100.00;102525.69;5244007;28;20032;-70
2023/05/17 02:05:47;;;;;;;15.50;5.85;;;;;;;6.02;100.00;102531.38;5243638;28;20024;-70
2023/05/17 02:08:18;;;;;;;17.73;5.75;;;;;;;5.95;100.00;102520.25;5244156;28;20086;-70
2023/05/17 02:10:49;;;;;;;15.45;5.43;;;;;;;5.87;100.00;102533.19;5244027;28;20111;-70
2023/05/17 02:13:20;;;;;;;20.92;6.22;;;;;;;5.82;100.00;102529.06;5243573;28;20695;-70
2023/05/17 02:15:50;;;;;;;21.15;6.25;;;;;;;5.79;100.00;102530.13;5243397;28;20024;-70
2023/05/17 02:18:21;;;;;;;11.35;5.57;;;;;;;5.79;100.00;102529.28;5230560;28;20024;-70
2023/05/17 02:20:51;;;;;;;13.27;5.30;;;;;;;5.78;100.00;102533.75;5238520;28;20049;-70
2023/05/17 02:23:23;;;;;;;14.43;5.50;;;;;;;5.73;100.00;102541.16;5231695;28;20481;-70
2023/05/17 02:26:02;;;;;;;8.05;4.38;;;;;;;5.69;100.00;102534.28;5243471;28;20025;-70
2023/05/17 02:28:35;;;;;;;16.25;4.97;;;;;;;5.59;100.00;102533.16;5244157;28;20017;-70
2023/05/17 02:31:11;;;;;;;12.60;5.60;;;;;;;5.51;100.00;102535.41;5230487;28;20490;-70
2023/05/17 02:33:42;;;;;;;14.65;5.57;;;;;;;5.44;100.00;102540.25;5225691;28;20050;-71
2023/05/17 02:36:12;;;;;;;16.25;5.90;;;;;;;5.39;100.00;102542.31;5242823;28;20035;-70
2023/05/17 02:38:43;;;;;;;17.83;6.18;;;;;;;5.36;100.00;102546.00;5243759;28;20029;-70
2023/05/17 02:41:13;;;;;;;15.15;6.35;;;;;;;5.31;100.00;102544.56;5236412;28;20020;-70
2023/05/17 02:43:44;;;;;;;17.95;6.63;;;;;;;5.25;100.00;102543.13;5230306;28;20431;-70
2023/05/17 02:46:15;;;;;;;17.42;6.10;;;;;;;5.21;100.00;102549.56;5243151;28;20021;-70
2023/05/17 02:48:45;;;;;;;15.68;6.60;;;;;;;5.19;100.00;102546.16;5239872;28;20343;-70
2023/05/17 02:51:16;;;;;;;19.85;6.82;;;;;;;5.18;100.00;102553.28;5233944;28;20058;-70
2023/05/17 02:53:46;;;;;;;23.20;6.93;;;;;;;5.12;100.00;102555.44;5238454;28;20054;-70
2023/05/17 02:56:17;;;;;;;13.23;5.72;;;;;;;5.05;100.00;102546.09;5230813;28;20470;-70
2023/05/17 02:58:47;;;;;;;18.38;6.35;;;;;;;4.98;100.00;102555.41;5242280;28;20035;-70
2023/05/17 03:01:17;;;;;;;14.55;6.15;;;;;;;4.92;100.00;102559.28;5247229;28;20032;-70
2023/05/17 03:03:48;;;;;;;20.30;6.65;;;;;;;4.87;100.00;102550.66;5234575;28;20024;-70
2023/05/17 03:06:18;;;;;;;16.88;6.38;;;;;;;4.82;100.00;102558.06;5245811;28;20024;-70
2023/05/17 03:08:49;;;;;;;12.93;6.22;;;;;;;4.75;100.00;102557.56;5235747;28;20024;-70
2023/05/17 03:11:19;;;;;;;17.65;6.25;;;;;;;4.75;100.00;102554.03;5244487;28;20038;-70
2023/05/17 03:13:50;;;;;;;10.05;5.45;;;;;;;4.70;100.00;102556.09;5236784;28;20078;-70
2023/05/17 03:16:21;;;;;;;16.75;6.28;;;;;;;4.62;100.00;102561.88;5233344;28;20066;-70
2023/05/17 03:18:51;;;;;;;18.67;7.38;;;;;;;4.57;100.00;102559.47;5247337;28;20035;-71
2023/05/17 03:21:21;;;;;;;22.35;7.05;;;;;;;4.55;100.00;102566.66;5246927;28;20020;-70
2023/05/17 03:23:52;;;;;;;14.95;6.68;;;;;;;4.60;100.00;102577.03;5247472;28;20118;-71
2023/05/17 03:26:23;;;;;;;14.20;5.82;;;;;;;4.66;100.00;102585.50;5247034;28;20031;-71
2023/05/17 03:28:54;;;;;;;19.08;7.50;;;;;;;4.68;100.00;102585.44;5229273;28;20025;-70
2023/05/17 03:31:25;;;;;;;14.60;7.10;;;;;;;4.74;100.00;102585.09;5247319;28;20086;-70
2023/05/17 03:33:55;;;;;;;16.77;6.95;;;;;;;4.77;100.00;102594.69;5246984;28;20401;-70
2023/05/17 03:36:26;;;;;;;16.45;8.52;;;;;;;4.83;100.00;102597.03;5246246;28;20035;-70
2023/05/17 03:38:56;;;;;;;14.75;6.88;;;;;;;4.86;100.00;102592.38;5233460;28;20021;-70
2023/05/17 03:41:27;;;;;;;19.90;8.13;;;;;;;4.88;100.00;102597.63;5239676;28;20016;-70
2023/05/17 03:43:57;;;;;;;21.55;8.00;;;;;;;4.91;100.00;102595.63;5246971;28;20107;-70
2023/05/17 03:46:28;;;;;;;22.98;7.95;;;;;;;4.93;100.00;102593.75;5235123;28;20029;-70
2023/05/17 03:48:58;;;;;;;14.35;6.82;;;;;;;4.96;100.00;102607.81;5233170;28;20104;-70
2023/05/17 03:51:29;;;;;;;16.73;8.55;;;;;;;5.00;100.00;102602.22;5246906;28;20362;-70
2023/05/17 03:54:00;;;;;;;16.95;8.63;;;;;;;5.05;100.00;102601.97;5241605;28;20031;-71
2023/05/17 03:56:31;;;;;;;26.92;10.35;;;;;;;5.13;100.00;102605.91;5246154;28;20032;-71
2023/05/17 03:59:01;;;;;;;25.40;9.90;;;;;;;5.27;100.00;102605.13;5246837;28;20025;-70
2023/05/17 04:01:32;;;;;;;25.40;10.88;;;;;;;5.36;100.00;102603.72;5246462;28;20025;-70
2023/05/17 04:04:03;;;;;;;18.65;8.90;;;;;;;5.42;100.00;102603.34;5246568;28;20496;-70
2023/05/17 04:06:33;;;;;;;18.85;8.60;;;;;;;5.44;100.00;102604.13;5241562;28;20032;-71
2023/05/17 04:09:04;;;;;;;20.50;9.80;;;;;;;5.48;100.00;102599.50;5236648;28;20705;-70
2023/05/17 04:11:35;;;;;;;22.90;9.98;;;;;;;5.52;100.00;102598.34;5227652;28;20024;-71
2023/05/17 04:14:05;;;;;;;30.33;9.85;;;;;;;5.59;100.00;102610.34;5234265;28;20407;-71
2023/05/17 04:16:35;;;;;;;33.47;12.40;;;;;;;5.68;100.00;102600.03;5244310;28;20032;-71
2023/05/17 04:19:06;;;;;;;25.98;11.65;;;;;;;5.76;100.00;102599.53;5246510;28;20437;-70
2023/05/17 04:21:36;;;;;;;25.30;11.63;;;;;;;5.83;100.00;102610.69;5234967;28;20086;-71
2023/05/17 04:24:07;;;;;;;39.30;13.68;;;;;;;5.94;100.00;102609.13;5239653;28;20021;-70
2023/05/17 04:26:38;;;;;;;24.95;11.93;;;;;;;6.04;100.00;102613.91;5233219;28;20120;-70
2023/05/17 04:29:09;;;;;;;33.38;13.25;;;;;;;6.14;100.00;102615.91;5246043;28;20017;-71
2023/05/17 04:31:39;;;;;;;24.73;11.95;;;;;;;6.23;100.00;102619.81;5236697;28;20043;-71
2023/05/17 04:34:10;;;;;;;29.17;11.23;;;;;;;6.34;100.00;102629.81;5238884;28;20047;-71
2023/05/17 04:36:40;;;;;;;28.80;12.38;;;;;;;6.43;100.00;102631.91;5235403;28;20485;-71
2023/05/17 04:39:11;;;;;;;27.45;12.07;;;;;;;6.52;100.00;102627.78;5245805;28;20416;-71
2023/05/17 04:41:41;;;;;;;33.40;11.68;;;;;;;6.57;100.00;102642.53;5238116;28;20025;-71
2023/05/17 04:44:12;;;;;;;26.70;12.52;;;;;;;6.63;100.00;102644.84;5245977;28;20055;-71
2023/05/17 04:46:44;;;;;;;35.53;13.48;;;;;;;6.73;100.00;102650.47;5227330;28;20028;-71
2023/05/17 04:49:14;;;;;;;27.38;13.05;;;;;;;6.81;100.00;102650.81;5245581;28;20099;-71
2023/05/17 04:51:45;;;;;;;40.65;14.55;;;;;;;6.89;100.00;102648.50;5232570;28;20389;-71
2023/05/17 04:54:15;;;;;;;39.28;13.57;;;;;;;6.95;100.00;102661.44;5240949;28;20047;-70
2023/05/17 04:56:46;;;;;;;30.80;14.68;;;;;;;7.05;100.00;102660.88;5242656;28;20055;-71
2023/05/17 04:59:16;;;;;;;30.00;13.13;;;;;;;7.10;100.00;102659.59;5225166;28;20043;-71
2023/05/17 05:01:47;;;;;;;31.63;13.70;;;;;;;7.20;100.00;102667.88;5224811;28;20052;-71
2023/05/17 05:04:17;;;;;;;41.63;15.32;;;;;;;7.27;100.00;102664.69;5235868;28;20024;-71
2023/05/17 05:06:48;;;;;;;45.85;16.55;;;;;;;7.40;100.00;102672.75;5245225;28;20024;-71
2023/05/17 05:09:18;;;;;;;43.47;16.60;;;;;;;7.49;100.00;102666.81;5233704;28;20563;-71
2023/05/17 05:11:49;;;;;;;40.20;16.13;;;;;;;7.57;100.00;102670.78;5244020;28;20075;-71
2023/05/17 05:14:19;;;;;;;39.45;15.65;;;;;;;7.65;100.00;102682.69;5231836;28;20427;-71
2023/05/17 05:16:50;;;;;;;35.10;15.15;;;;;;;7.74;100.00;102682.06;5237840;28;20021;-71
2023/05/17 05:19:20;;;;;;;35.17;15.43;;;;;;;7.82;100.00;102667.31;5237375;28;20032;-71
2023/05/17 05:21:51;;;;;;;35.97;14.85;;;;;;;7.88;100.00;102674.91;5233822;28;20048;-71
2023/05/17 05:24:21;;;;;;;33.40;14.95;;;;;;;7.99;100.00;102670.56;5241603;28;20346;-71
2023/05/17 05:26:52;;;;;;;33.22;14.52;;;;;;;8.09;100.00;102680.63;5244410;28;20028;-71
2023/05/17 05:29:22;;;;;;;35.95;14.73;;;;;;;8.21;100.00;102680.63;5231914;28;20420;-71
2023/05/17 05:31:53;;;;;;;35.78;15.05;;;;;;;8.34;100.00;102683.31;5245103;28;20074;-71
2023/05/17 05:34:23;;;;;;;37.30;15.57;;;;;;;8.47;100.00;102686.00;5244144;28;20120;-72
2023/05/17 05:36:54;;;;;;;31.67;14.45;;;;;;;8.59;100.00;102695.00;5237095;28;20082;-71
2023/05/17 05:39:26;;;;;;;46.22;14.98;;;;;;;8.74;100.00;102699.28;5243927;28;20025;-72
2023/05/17 05:41:57;;;;;;;27.75;12.55;;;;;;;8.82;100.00;102691.53;5239196;28;20074;-71
2023/05/17 05:44:27;;;;;;;30.00;12.95;;;;;;;8.94;100.00;102697.84;5226822;28;20507;-72
2023/05/17 05:46:58;;;;;;;29.33;13.25;;;;;;;9.08;100.00;102701.22;5243789;28;20020;-71
2023/05/17 05:49:28;;;;;;;29.70;13.57;;;;;;;9.24;100.00;102697.44;5244755;28;20020;-71
2023/05/17 05:51:58;;;;;;;28.95;12.40;;;;;;;9.43;100.00;102707.63;5244237;28;20031;-71
2023/05/17 05:54:30;;;;;;;29.80;11.98;;;;;;;9.53;100.00;102704.16;5239754;28;20470;-72
2023/05/17 05:57:00;;;;;;;33.67;12.43;;;;;;;9.69;100.00;102711.03;5239579;28;20386;-71
2023/05/17 05:59:31;;;;;;;27.60;11.40;;;;;;;9.79;100.00;102702.22;5236863;28;20275;-72
2023/05/17 06:02:01;;;;;;;26.95;11.55;;;;;;;9.94;100.00;102707.38;5244587;28;20023;-71
2023/05/17 06:04:32;;;;;;;29.98;11.05;;;;;;;10.02;100.00;102711.19;5244014;28;20086;-71
2023/05/17 06:07:02;;;;;;;27.67;11.32;;;;;;;10.10;100.00;102719.50;5243934;28;20032;-71
2023/05/17 06:09:33;;;;;;;27.92;10.65;;;;;;;10.38;100.00;102720.91;5244542;28;20508;-71
2023/05/17 06:12:03;;;;;;;22.17;10.25;;;;;;;10.53;100.00;102720.69;5235651;28;20056;-71
2023/05/17 06:14:36;;;;;;;26.10;9.63;;;;;;;10.63;100.00;102714.47;5239700;28;20427;-71
2023/05/17 06:17:06;;;;;;;19.05;9.05;;;;;;;10.65;100.00;102724.28;5243747;28;20093;-71
2023/05/17 06:19:37;;;;;;;25.35;9.38;;;;;;;10.78;100.00;102723.16;5243834;28;20016;-71
2023/05/17 06:22:08;;;;;;;33.92;10.15;;;;;;;11.18;100.00;102724.47;5238465;28;20016;-71
2023/05/17 06:24:38;;;;;;;32.15;9.20;;;;;;;11.59;100.00;102729.97;5213387;28;20478;-71
2023/05/17 06:27:09;;;;;;;24.33;8.35;;;;;;;12.24;100.00;102727.28;5242350;28;20469;-71
2023/05/17 06:29:39;;;;;;;22.83;7.90;;;;;;;12.60;100.00;102721.44;5235399;28;20482;-71
2023/05/17 06:32:10;;;;;;;21.15;6.80;;;;;;;13.09;100.00;102719.75;5217354;28;20037;-71
2023/05/17 06:34:41;;;;;;;22.23;6.65;;;;;;;12.87;100.00;102719.97;5230064;28;20035;-72
2023/05/17 06:37:11;;;;;;;22.30;5.90;;;;;;;12.87;100.00;102719.97;5242228;28;20074;-71
2023/05/17 06:39:42;;;;;;;17.92;6.32;;;;;;;12.87;100.00;102731.59;5238629;28;20036;-71
2023/05/17 06:42:14;;;;;;;15.80;5.60;;;;;;;12.80;100.00;102727.75;5238210;28;20487;-71
2023/05/17 06:44:44;;;;;;;17.45;6.45;;;;;;;12.87;100.00;102726.22;5242666;28;20040;-71
2023/05/17 06:47:15;;;;;;;13.13;5.43;;;;;;;13.02;100.00;102731.25;5242094;28;20024;-71
2023/05/17 06:49:45;;;;;;;20.75;6.40;;;;;;;13.73;100.00;102740.91;5241417;28;20036;-72
2023/05/17 06:52:16;;;;;;;25.17;6.50;;;;;;;14.52;100.00;102730.94;5241971;28;20028;-72
2023/05/17 06:54:47;;;;;;;21.35;5.80;;;;;;;15.12;100.00;102724.16;5224031;28;20112;-71
2023/05/17 06:57:17;;;;;;;18.70;6.05;;;;;;;15.98;100.00;102727.25;5234728;28;20032;-72
2023/05/17 06:59:48;;;;;;;19.23;5.30;;;;;;;16.35;100.00;102722.63;5238952;28;20021;-72
2023/05/17 07:02:18;;;;;;;14.95;4.97;;;;;;;17.07;100.00;102735.78;5242725;28;20058;-72
2023/05/17 07:04:49;;;;;;;17.77;4.85;;;;;;;17.15;100.00;102740.38;5245539;28;20588;-71
2023/05/17 07:07:20;;;;;;;20.90;5.10;;;;;;;17.03;100.00;102731.69;5246857;28;20417;-73
2023/05/17 07:09:50;;;;;;;12.98;4.80;;;;;;;17.06;100.00;102733.19;5239325;28;20531;-72
2023/05/17 07:12:21;;;;;;;19.10;5.13;;;;;;;16.77;100.00;102731.72;5242831;28;20435;-72
2023/05/17 07:14:51;;;;;;;15.00;5.40;;;;;;;16.49;100.00;102728.31;5240323;28;20042;-72
2023/05/17 07:17:21;;;;;;;19.40;5.32;;;;;;;16.06;100.00;102726.47;5239252;28;20029;-72
2023/05/17 07:19:52;;;;;;;12.85;4.65;;;;;;;16.11;100.00;102726.84;5247060;28;20032;-71
2023/05/17 07:22:22;;;;;;;19.05;4.50;;;;;;;16.51;100.00;102720.00;5239628;28;20031;-71
2023/05/17 07:24:53;;;;;;;14.18;4.82;;;;;;;17.12;100.00;102723.56;5240881;28;20028;-72
2023/05/17 07:27:23;;;;;;;18.70;5.00;;;;;;;17.54;100.00;102720.81;5242399;28;20472;-72
2023/05/17 07:29:54;;;;;;;16.50;4.95;;;;;;;17.86;100.00;102717.31;5240123;28;20422;-72
2023/05/17 07:32:24;;;;;;;14.32;3.72;;;;;;;18.72;100.00;102715.88;5239709;28;20114;-72
2023/05/17 07:34:55;;;;;;;11.88;3.95;;;;;;;19.53;100.00;102725.50;5240795;28;20084;-72
2023/05/17 07:37:25;;;;;;;10.25;4.15;;;;;;;19.37;100.00;102719.13;5239916;28;20313;-72
2023/05/17 07:39:56;;;;;;;11.35;3.88;;;;;;;19.49;100.00;102725.03;5239886;28;20024;-72
2023/05/17 07:42:26;;;;;;;13.50;3.60;;;;;;;19.85;100.00;102719.88;5239121;28;20513;-72
2023/05/17 07:44:57;;;;;;;17.50;4.28;;;;;;;20.02;100.00;102726.00;5240891;28;20024;-72
2023/05/17 07:47:28;;;;;;;13.60;3.75;;;;;;;19.95;100.00;102722.34;5242161;28;20381;-72
2023/05/17 07:49:59;;;;;;;14.30;4.88;;;;;;;20.07;100.00;102723.59;5243315;28;20028;-72
2023/05/17 07:52:29;;;;;;;14.85;4.30;;;;;;;20.43;100.00;102726.50;5242264;28;20032;-72
2023/05/17 07:55:00;;;;;;;16.15;4.43;;;;;;;20.74;100.00;102721.94;5252896;28;20039;-73
2023/05/17 07:57:30;;;;;;;10.73;3.95;;;;;;;20.86;100.00;102728.59;5243091;28;20020;-73
2023/05/17 08:00:01;;;;;;;23.02;5.30;;;;;;;21.07;100.00;102736.00;5254844;28;20493;-73
2023/05/17 08:02:31;;;;;;;14.77;4.10;;;;;;;21.58;100.00;102731.38;5243303;28;20545;-73
2023/05/17 08:05:02;;;;;;;9.77;3.15;;;;;;;21.27;100.00;102728.06;5243136;28;20024;-73
2023/05/17 08:07:32;;;;;;;12.95;3.38;;;;;;;21.20;100.00;102728.00;5257363;28;20070;-73
2023/05/17 08:10:03;;;;;;;14.82;3.95;;;;;;;21.15;100.00;102741.38;5242834;28;20017;-72
2023/05/17 08:12:34;;;;;;;11.25;3.33;;;;;;;21.19;100.00;102740.81;5244791;28;20024;-73
2023/05/17 08:15:05;;;;;;;10.77;2.80;;;;;;;21.08;100.00;102737.69;5243954;28;20024;-73
2023/05/17 08:17:35;;;;;;;9.02;3.28;;;;;;;20.89;100.00;102745.44;5242225;28;20112;-72
2023/05/17 08:20:07;;;;;;;10.98;3.45;;;;;;;19.90;100.00;102728.34;5242145;28;20420;-72
2023/05/17 08:22:37;;;;;;;10.55;3.45;;;;;;;18.80;100.00;102740.31;5247389;28;20028;-72
2023/05/17 08:25:08;;;;;;;13.15;4.05;;;;;;;18.02;100.00;102740.91;5251576;28;20400;-72
2023/05/17 08:27:39;;;;;;;10.50;3.70;;;;;;;17.96;100.00;102738.88;5250206;28;20021;-72
2023/05/17 08:30:10;;;;;;;11.05;3.08;;;;;;;18.44;100.00;102737.16;5243384;28;20020;-72
2023/05/17 08:32:41;;;;;;;12.93;3.55;;;;;;;18.83;100.00;102737.25;5242994;28;20035;-73
2023/05/17 08:35:11;;;;;;;12.43;3.58;;;;;;;19.47;100.00;102728.94;5243213;28;20020;-72
2023/05/17 08:37:42;;;;;;;10.32;3.10;;;;;;;20.26;100.00;102735.00;5242162;28;20021;-72
2023/05/17 08:40:16;;;;;;;9.38;3.42;;;;;;;20.73;100.00;102740.16;5242807;28;20022;-73
2023/05/17 08:42:47;;;;;;;9.55;3.03;;;;;;;20.77;100.00;102738.75;5253442;28;20025;-73
2023/05/17 08:45:17;;;;;;;11.10;3.08;;;;;;;21.07;100.00;102741.47;5252770;28;20024;-73
2023/05/17 08:47:49;;;;;;;13.05;3.42;;;;;;;21.10;100.00;102732.91;5250716;28;20615;-73
2023/05/17 08:50:20;;;;;;;10.05;3.22;;;;;;;21.43;100.00;102739.63;5246197;28;20237;-73
2023/05/17 08:52:51;;;;;;;10.85;2.95;;;;;;;22.08;100.00;102740.50;5250762;28;20043;-73
2023/05/17 08:55:22;;;;;;;11.98;3.13;;;;;;;21.40;100.00;102739.19;5244920;28;20029;-73
2023/05/17 08:57:53;;;;;;;14.25;3.50;;;;;;;21.46;95.40;102744.72;5241791;28;20020;-73
2023/05/17 09:00:25;;;;;;;9.55;2.75;;;;;;;21.42;90.71;102737.94;5241315;28;20104;-72
2023/05/17 09:02:56;;;;;;;10.70;3.20;;;;;;;20.83;100.00;102745.34;5242145;28;20481;-72
2023/05/17 09:05:27;;;;;;;11.23;3.10;;;;;;;20.44;100.00;102730.06;5250161;28;20083;-72
2023/05/17 09:07:58;;;;;;;10.80;2.83;;;;;;;20.60;100.00;102724.47;5246108;28;20493;-73
2023/05/17 09:10:30;;;;;;;18.50;3.33;;;;;;;20.42;100.00;102727.50;5232936;28;20019;-72
2023/05/17 09:13:01;;;;;;;18.63;3.13;;;;;;;20.91;100.00;102732.44;5248862;28;20032;-72
2023/05/17 09:15:33;;;;;;;11.98;2.83;;;;;;;20.94;97.27;102734.81;5253630;28;20074;-72
2023/05/17 09:18:03;;;;;;;10.23;3.22;;;;;;;21.01;97.81;102731.31;5243371;28;20411;-72
2023/05/17 09:20:35;;;;;;;10.70;2.75;;;;;;;20.94;94.36;102733.97;5239624;28;20012;-72
2023/05/17 09:23:09;;;;;;;10.93;2.67;;;;;;;21.26;95.76;102735.41;5241289;28;20024;-72
2023/05/17 09:26:02;;;;;;;14.13;3.42;;;;;;;21.04;95.25;102741.88;5245625;28;20118;-72
2023/05/17 09:28:52;;;;;;;15.90;3.65;;;;;;;21.24;93.41;102739.41;5240592;28;20121;-73
2023/05/17 09:31:22;;;;;;;14.45;2.47;;;;;;;21.32;89.40;102742.88;5241316;28;20029;-72
2023/05/17 09:33:53;;;;;;;14.35;3.53;;;;;;;20.99;95.80;102736.97;5241350;28;20085;-72
2023/05/17 09:36:23;;;;;;;13.23;3.20;;;;;;;20.99;99.47;102728.78;5243191;28;20021;-72
2023/05/17 09:38:58;;;;;;;9.80;2.92;;;;;;;21.39;100.00;102732.88;5241489;28;20471;-72
2023/05/17 09:41:32;;;;;;;9.73;2.78;;;;;;;21.52;98.74;102734.91;5249864;28;20024;-72
2023/05/17 09:44:08;;;;;;;11.90;3.15;;;;;;;21.76;91.59;102725.50;5250020;28;20629;-72
2023/05/17 09:46:56;;;;;;;12.07;2.88;;;;;;;21.56;79.10;102738.94;5244155;28;20024;-72
2023/05/17 09:49:27;;;;;;;10.27;2.90;;;;;;;21.21;89.50;102733.25;5240269;28;20031;-72
2023/05/17 09:51:58;;;;;;;10.70;2.40;;;;;;;21.08;90.96;102737.69;5240937;28;20516;-72
2023/05/17 09:54:36;;;;;;;13.45;3.08;;;;;;;20.79;78.82;102736.69;5240602;28;20024;-72
2023/05/17 09:57:09;;;;;;;13.20;2.50;;;;;;;20.43;84.56;102728.34;5252460;28;20023;-72
2023/05/17 09:59:39;;;;;;;10.77;3.05;;;;;;;19.50;97.61;102732.16;5246557;28;20024;-72
2023/05/17 10:02:18;;;;;;;12.75;2.90;;;;;;;19.59;96.30;102727.53;5240599;28;20103;-72
2023/05/17 10:04:50;;;;;;;13.43;3.00;;;;;;;19.73;97.38;102721.34;5252339;28;20052;-72
2023/05/17 10:07:24;;;;;;;11.65;3.08;;;;;;;20.08;100.00;102717.13;5242102;28;20077;-72
2023/05/17 10:09:56;;;;;;;10.13;2.40;;;;;;;20.16;91.19;102721.66;5241928;28;20501;-72
2023/05/17 10:12:28;;;;;;;11.13;2.75;;;;;;;20.17;97.47;102717.88;5240340;28;20377;-72
2023/05/17 10:15:00;;;;;;;14.25;3.33;;;;;;;20.10;95.95;102720.50;5241343;28;20236;-73
2023/05/17 10:17:31;;;;;;;15.77;3.50;;;;;;;20.32;100.00;102735.09;5240299;28;20020;-72
2023/05/17 10:20:05;;;;;;;11.95;2.55;;;;;;;20.57;100.00;102722.09;5240297;28;20354;-72
2023/05/17 10:22:37;;;;;;;9.10;2.30;;;;;;;20.83;81.91;102724.34;5240172;28;20051;-72
2023/05/17 10:25:08;;;;;;;11.23;2.60;;;;;;;20.54;89.53;102714.31;5246269;28;20085;-72
2023/05/17 10:27:40;;;;;;;13.57;3.08;;;;;;;20.44;86.44;102711.00;5243810;28;20020;-72
2023/05/17 10:30:14;;;;;;;16.30;2.95;;;;;;;20.26;92.35;102716.78;5240505;28;20064;-72
2023/05/17 10:32:46;;;;;;;10.98;2.78;;;;;;;20.46;100.00;102710.78;5240490;28;20063;-72
2023/05/17 10:35:17;;;;;;;10.38;2.70;;;;;;;20.42;97.79;102716.59;5241812;28;20032;-72
2023/05/17 10:37:48;;;;;;;12.02;2.40;;;;;;;20.46;96.93;102708.91;5246129;28;20107;-72
2023/05/17 10:40:19;;;;;;;10.43;2.38;;;;;;;20.88;100.00;102719.22;5244593;28;20111;-72
2023/05/17 10:42:52;;;;;;;13.20;3.28;;;;;;;20.85;87.51;102711.41;5246602;28;20190;-72
2023/05/17 10:45:25;;;;;;;7.70;2.42;;;;;;;20.82;96.63;102709.03;5241270;28;20082;-73
2023/05/17 10:47:56;;;;;;;14.98;2.90;;;;;;;20.85;92.19;102702.38;5244339;28;20520;-72
2023/05/17 10:50:26;;;;;;;13.27;2.45;;;;;;;20.44;97.34;102697.34;5245416;28;20036;-73
2023/05/17 10:52:58;;;;;;;8.55;2.35;;;;;;;20.43;82.79;102695.63;5239442;28;20031;-72
2023/05/17 10:55:48;;;;;;;15.82;2.60;;;;;;;20.11;86.61;102702.28;5239998;28;20063;-72
2023/05/17 10:58:20;;;;;;;16.48;2.95;;;;;;;19.65;94.80;102697.72;5239480;28;20443;-72
2023/05/17 11:03:38;;;;;;;10.38;2.95;;;;;;;19.21;96.59;102702.91;5241346;28;20029;-72
2023/05/17 11:06:09;;;;;;;15.13;2.85;;;;;;;19.01;96.05;102693.50;5235351;28;20029;-72
2023/05/17 11:09:17;;;;;;;11.15;2.70;;;;;;;18.77;92.78;102698.00;5241233;28;20390;-72
2023/05/17 11:12:07;;;;;;;21.00;3.20;;;;;;;18.36;100.00;102680.94;5241310;28;20027;-72
2023/05/17 11:14:57;;;;;;;10.50;2.70;;;;;;;18.61;100.00;102679.00;5241274;28;20036;-72
2023/05/17 11:17:35;;;;;;;9.32;2.58;;;;;;;19.13;100.00;102684.78;5241413;28;20297;-73
2023/05/17 11:20:09;;;;;;;12.55;2.88;;;;;;;19.07;100.00;102680.00;5241511;28;20029;-72
2023/05/17 11:22:43;;;;;;;10.95;3.15;;;;;;;18.82;96.39;102682.00;5240465;28;20029;-72
2023/05/17 11:25:14;;;;;;;12.23;2.75;;;;;;;18.97;100.00;102681.25;5238909;28;20501;-72
2023/05/17 11:27:47;;;;;;;10.52;2.60;;;;;;;19.19;91.67;102691.38;5236649;28;20198;-72
2023/05/17 11:30:55;;;;;;;11.00;2.35;;;;;;;18.95;83.27;102689.59;5242957;28;20025;-72
2023/05/17 11:33:45;;;;;;;11.75;2.13;;;;;;;18.83;83.71;102678.28;5240578;28;20107;-73
2023/05/17 11:36:31;;;;;;;9.27;2.30;;;;;;;18.90;83.65;102675.69;5239515;28;20913;-72
2023/05/17 11:39:22;;;;;;;12.55;2.33;;;;;;;18.78;88.00;102682.56;5238140;28;20048;-72
2023/05/17 11:41:54;;;;;;;11.70;2.70;;;;;;;18.92;90.44;102681.78;5241192;28;20025;-72